Time;durP1;ratioP1;P1;durP2;ratioP2;P2;SDS_P1;SDS_P2;PMS_P1;PMS_P2;Temp;Humidity;BMP_temperature;BMP_pressure;BME280_temperature;BME280_humidity;BME280_pressure;Samples;Min_cycle;Max_cycle;Signal;HPM_P1;HPM_P2
2021/12/05 00:22:26;;;;;;;6.30;1.40;;;3.80;99.90;;;;;;5006205;28;20033;-73
2021/12/05 00:24:56;;;;;;;4.72;1.35;;;3.80;99.90;;;;;;5076174;28;20050;-72
2021/12/05 00:27:37;;;;;;;4.13;1.38;;;3.70;99.90;;;;;;5075684;28;20030;-72
2021/12/05 00:33:12;;;;;;;4.40;1.35;;;3.70;99.90;;;;;;4989043;28;20043;-73
2021/12/05 00:41:26;;;;;;;11.57;1.70;;;3.70;99.90;;;;;;4989277;28;20041;-72
2021/12/05 00:44:29;;;;;;;6.38;1.20;;;3.60;99.90;;;;;;5008368;28;20018;-72
2021/12/05 00:47:01;;;;;;;6.88;1.40;;;3.60;99.90;;;;;;5004110;28;20026;-72
2021/12/05 01:05:22;;;;;;;5.22;1.27;;;3.70;99.90;;;;;;5010122;28;20029;-70
2021/12/05 01:15:18;;;;;;;3.97;1.40;;;3.80;99.90;;;;;;5001753;28;20127;-70
2021/12/05 01:20:21;;;;;;;6.82;1.30;;;3.80;99.90;;;;;;5006968;28;20074;-70
2021/12/05 01:23:06;;;;;;;5.97;1.38;;;3.80;99.90;;;;;;5076688;28;20026;-70
2021/12/05 01:25:44;;;;;;;3.22;1.15;;;3.80;99.90;;;;;;5071311;28;20037;-70
2021/12/05 01:39:08;;;;;;;7.50;1.60;;;3.80;99.90;;;;;;5010497;28;20680;-70
2021/12/05 01:49:30;;;;;;;5.60;1.50;;;3.80;99.90;;;;;;4997503;28;20065;-71
2021/12/05 01:52:20;;;;;;;9.55;1.25;;;3.80;99.90;;;;;;5010814;28;20077;-70
2021/12/05 02:30:12;;;;;;;7.72;1.73;;;3.70;99.90;;;;;;5021653;28;20039;-70
2021/12/05 02:35:37;;;;;;;6.20;1.60;;;3.60;99.90;;;;;;5009460;28;20045;-71
2021/12/05 02:38:16;;;;;;;5.25;1.55;;;3.60;99.90;;;;;;5078132;28;20030;-70
2021/12/05 02:43:43;;;;;;;5.35;1.17;;;3.60;99.90;;;;;;5018438;28;20448;-72
2021/12/05 02:46:12;;;;;;;8.05;1.52;;;3.60;99.90;;;;;;5074463;28;20040;-70
2021/12/05 02:48:38;;;;;;;6.93;1.50;;;3.60;99.90;;;;;;5076992;28;20060;-71
2021/12/05 02:51:14;;;;;;;5.65;1.38;;;3.70;99.90;;;;;;5090992;28;20025;-71
2021/12/05 02:54:02;;;;;;;6.07;1.40;;;3.70;99.90;;;;;;5096928;28;20048;-70
2021/12/05 02:56:31;;;;;;;7.13;1.40;;;3.70;99.90;;;;;;5075639;28;20038;-70
2021/12/05 02:59:04;;;;;;;8.20;1.67;;;3.70;99.90;;;;;;4991826;28;20117;-71
2021/12/05 03:04:00;;;;;;;2.63;1.30;;;3.70;99.90;;;;;;5013356;28;20026;-70
2021/12/05 03:06:31;;;;;;;4.65;1.38;;;3.70;99.90;;;;;;5069231;28;20489;-71
2021/12/05 03:09:06;;;;;;;4.63;1.20;;;3.70;99.90;;;;;;5089372;28;20076;-70
2021/12/05 03:11:32;;;;;;;9.13;1.92;;;3.60;99.90;;;;;;5077088;28;20147;-71
2021/12/05 03:13:58;;;;;;;4.85;1.67;;;3.70;99.90;;;;;;5083598;28;20117;-70
2021/12/05 03:18:52;;;;;;;6.05;1.23;;;3.60;99.90;;;;;;4967090;28;20050;-68
2021/12/05 03:21:18;;;;;;;3.10;1.17;;;3.60;99.90;;;;;;5050366;28;20055;-67
2021/12/05 03:23:47;;;;;;;3.65;1.33;;;3.60;99.90;;;;;;5055848;28;20118;-67
2021/12/05 03:26:18;;;;;;;6.13;1.38;;;3.60;99.90;;;;;;5057171;28;20030;-67
2021/12/05 03:28:44;;;;;;;12.30;1.80;;;3.60;99.90;;;;;;5057437;28;20034;-67
2021/12/05 03:31:11;;;;;;;7.07;1.50;;;3.60;99.90;;;;;;5046732;28;20018;-67
2021/12/05 03:33:37;;;;;;;9.73;1.33;;;3.60;99.90;;;;;;5022965;28;20118;-68
2021/12/05 03:36:05;;;;;;;3.17;1.40;;;3.60;99.90;;;;;;5056767;28;20390;-67
2021/12/05 03:38:32;;;;;;;8.70;1.30;;;3.60;99.90;;;;;;5054822;28;20037;-67
2021/12/05 03:40:58;;;;;;;5.20;1.40;;;3.60;99.90;;;;;;5056771;28;20030;-67
2021/12/05 03:43:24;;;;;;;4.75;1.25;;;3.50;99.90;;;;;;5033565;28;20035;-68
2021/12/05 03:45:54;;;;;;;9.75;1.40;;;3.50;99.90;;;;;;5051398;28;20028;-67
2021/12/05 03:48:22;;;;;;;3.88;1.25;;;3.50;99.90;;;;;;5054899;28;20022;-67
2021/12/05 03:50:49;;;;;;;2.58;1.08;;;3.50;99.90;;;;;;5056147;28;20448;-67
2021/12/05 03:53:17;;;;;;;6.57;1.30;;;3.50;99.90;;;;;;5056361;28;20038;-67
2021/12/05 03:55:50;;;;;;;7.45;1.60;;;3.50;99.90;;;;;;5055482;28;20026;-67
2021/12/05 03:58:17;;;;;;;3.00;1.45;;;3.50;99.90;;;;;;5051054;28;20490;-67
2021/12/05 04:00:45;;;;;;;5.97;1.30;;;3.50;99.90;;;;;;5056129;28;20397;-67
2021/12/05 04:03:14;;;;;;;4.82;1.23;;;3.50;99.90;;;;;;5055935;28;20102;-67
2021/12/05 04:05:40;;;;;;;4.68;1.58;;;3.50;99.90;;;;;;5049173;28;20117;-68
2021/12/05 04:08:10;;;;;;;4.85;1.27;;;3.50;99.90;;;;;;5054956;28;20041;-68
2021/12/05 04:10:38;;;;;;;5.50;1.48;;;3.50;99.90;;;;;;5056319;28;20039;-68
2021/12/05 04:13:05;;;;;;;9.50;1.30;;;3.40;99.90;;;;;;5055951;28;20038;-67
2021/12/05 04:15:31;;;;;;;4.72;1.15;;;3.40;99.90;;;;;;5056512;28;20386;-67
2021/12/05 04:17:57;;;;;;;4.32;1.30;;;3.40;99.90;;;;;;5053566;28;20030;-67
2021/12/05 04:20:24;;;;;;;3.15;1.30;;;3.40;99.90;;;;;;5054828;28;20110;-67
2021/12/05 04:22:50;;;;;;;7.93;1.50;;;3.40;99.90;;;;;;5004280;28;20433;-68
2021/12/05 04:25:17;;;;;;;2.75;1.15;;;3.40;99.90;;;;;;5040055;28;20405;-66
2021/12/05 04:27:45;;;;;;;6.05;1.25;;;3.40;99.90;;;;;;5055434;28;20126;-67
2021/12/05 04:30:13;;;;;;;4.38;1.17;;;3.40;99.90;;;;;;5054945;28;20026;-67
2021/12/05 04:32:39;;;;;;;5.03;1.58;;;3.40;99.90;;;;;;5055451;28;20127;-67
2021/12/05 04:35:06;;;;;;;3.72;1.20;;;3.30;99.90;;;;;;5054954;28;20489;-66
2021/12/05 04:37:31;;;;;;;3.88;1.40;;;3.30;99.90;;;;;;5055491;28;20035;-67
2021/12/05 04:39:58;;;;;;;2.10;1.17;;;3.30;99.90;;;;;;5053003;28;20347;-67
2021/12/05 04:42:23;;;;;;;4.22;1.15;;;3.30;99.90;;;;;;5039195;28;20025;-67
2021/12/05 04:44:50;;;;;;;4.63;1.38;;;3.30;99.90;;;;;;5008821;28;20030;-67
2021/12/05 04:47:15;;;;;;;2.45;1.15;;;3.30;99.90;;;;;;5054785;28;20383;-67
2021/12/05 04:49:41;;;;;;;2.58;1.27;;;3.30;99.90;;;;;;5049315;28;20060;-67
2021/12/05 04:52:09;;;;;;;2.65;1.10;;;3.20;99.90;;;;;;5042004;28;20398;-67
2021/12/05 04:54:35;;;;;;;5.30;1.40;;;3.20;99.90;;;;;;5050416;28;20029;-67
2021/12/05 04:57:01;;;;;;;2.60;1.15;;;3.20;99.90;;;;;;5053976;28;20117;-66
2021/12/05 04:59:29;;;;;;;4.80;1.38;;;3.20;99.90;;;;;;5054866;28;20431;-67
2021/12/05 05:01:59;;;;;;;3.20;1.40;;;3.30;99.90;;;;;;5052929;28;20027;-66
2021/12/05 05:04:28;;;;;;;5.43;1.55;;;3.30;99.90;;;;;;5044845;28;20033;-64
2021/12/05 05:06:58;;;;;;;5.53;1.65;;;3.30;99.90;;;;;;5054931;28;20444;-66
2021/12/05 05:09:24;;;;;;;3.05;1.30;;;3.30;99.90;;;;;;5055160;28;20042;-67
2021/12/05 05:11:50;;;;;;;3.33;1.30;;;3.30;99.90;;;;;;5055601;28;20113;-67
2021/12/05 05:14:16;;;;;;;2.47;1.40;;;3.30;99.90;;;;;;5053863;28;20030;-66
2021/12/05 05:16:43;;;;;;;5.95;1.58;;;3.30;99.90;;;;;;5053937;28;20026;-67
2021/12/05 05:19:11;;;;;;;3.15;1.77;;;3.40;99.90;;;;;;5054207;28;20034;-68
2021/12/05 05:40:49;;;;;;;4.72;1.73;;;3.30;99.90;;;;;;4988551;28;20159;-67
2021/12/05 05:45:59;;;;;;;10.50;1.90;;;3.30;99.90;;;;;;5003268;28;20072;-67
2021/12/05 05:51:05;;;;;;;2.80;1.55;;;3.20;99.90;;;;;;4987818;28;20079;-67
2021/12/05 05:53:31;;;;;;;5.95;1.90;;;3.30;99.90;;;;;;5054879;28;20026;-67
2021/12/05 05:55:57;;;;;;;5.35;1.50;;;3.20;99.90;;;;;;5054908;28;20034;-66
2021/12/05 05:58:47;;;;;;;7.80;1.90;;;3.20;99.90;;;;;;5053778;28;20075;-67
2021/12/05 06:03:18;;;;;;;4.10;1.55;;;3.20;99.90;;;;;;4988193;28;20330;-67
2021/12/05 06:04:02;;;;;;;4.95;1.48;;;3.20;99.90;;;;;;4988989;28;20342;-67
2021/12/05 06:06:30;;;;;;;2.22;1.20;;;3.20;99.90;;;;;;5050848;28;20496;-67
2021/12/05 06:08:56;;;;;;;5.97;1.58;;;3.20;99.90;;;;;;5055457;28;20038;-67
2021/12/05 06:11:22;;;;;;;5.70;1.73;;;3.20;99.90;;;;;;5057965;28;20034;-67
2021/12/05 06:13:49;;;;;;;4.53;1.60;;;3.20;99.90;;;;;;5058464;28;20029;-67
2021/12/05 06:16:16;;;;;;;4.60;1.38;;;3.20;99.90;;;;;;5057945;28;20087;-67
2021/12/05 06:18:42;;;;;;;5.88;1.27;;;3.10;99.90;;;;;;5055918;28;20030;-67
2021/12/05 06:21:08;;;;;;;8.57;1.67;;;3.10;99.90;;;;;;5057742;28;20023;-66
2021/12/05 06:23:36;;;;;;;3.47;1.42;;;3.10;99.90;;;;;;5036468;28;20099;-67
2021/12/05 06:26:03;;;;;;;4.20;1.58;;;3.10;99.90;;;;;;5069279;28;20048;-66
2021/12/05 06:46:44;;;;;;;3.90;1.45;;;3.10;99.90;;;;;;4997839;28;19910;-65
2021/12/05 06:49:10;;;;;;;4.35;1.30;;;3.00;99.90;;;;;;5048904;28;20022;-66
2021/12/05 06:51:36;;;;;;;9.48;3.33;;;3.00;99.90;;;;;;5057392;28;20060;-67
2021/12/05 06:54:02;;;;;;;6.15;1.67;;;3.00;99.90;;;;;;5058693;28;20030;-66
2021/12/05 06:56:28;;;;;;;3.20;1.58;;;3.00;99.90;;;;;;5053367;28;20486;-65
2021/12/05 06:58:55;;;;;;;6.05;1.70;;;3.10;99.90;;;;;;5058343;28;20027;-66
2021/12/05 07:01:22;;;;;;;4.97;1.60;;;3.10;99.90;;;;;;5056388;28;20045;-66
2021/12/05 07:03:49;;;;;;;5.72;1.75;;;3.10;99.90;;;;;;5058454;28;20109;-66
2021/12/05 07:06:22;;;;;;;6.28;1.95;;;3.10;99.90;;;;;;5057526;28;20117;-66
2021/12/05 07:08:51;;;;;;;7.82;1.70;;;3.00;99.90;;;;;;5057465;28;20538;-66
2021/12/05 07:21:51;;;;;;;7.55;1.90;;;3.00;99.90;;;;;;4990443;28;20081;-67
2021/12/05 07:40:28;;;;;;;5.57;2.72;;;3.10;99.90;;;;;;4988855;28;20045;-66
2021/12/05 07:42:57;;;;;;;5.28;2.30;;;3.10;99.90;;;;;;5057041;28;20018;-66
2021/12/05 07:45:31;;;;;;;2.33;1.90;;;3.10;99.90;;;;;;5056506;28;20034;-66
2021/12/05 07:48:01;;;;;;;3.67;1.85;;;3.10;99.90;;;;;;5054913;28;20038;-67
2021/12/05 07:50:41;;;;;;;7.13;2.20;;;3.20;99.90;;;;;;5057112;28;20031;-67
2021/12/05 07:53:15;;;;;;;3.60;2.00;;;3.20;99.90;;;;;;5045346;28;20042;-66
2021/12/05 07:55:43;;;;;;;3.90;1.77;;;3.20;99.90;;;;;;5056283;28;20423;-66
2021/12/05 07:58:27;;;;;;;8.50;2.30;;;3.20;99.90;;;;;;5055668;28;20023;-67
2021/12/05 08:14:26;;;;;;;20.00;10.10;;;3.30;99.90;;;;;;4983512;28;20029;-66
2021/12/05 08:16:54;;;;;;;26.50;15.07;;;3.30;99.90;;;;;;5053817;28;20126;-65
2021/12/05 08:19:20;;;;;;;78.03;37.60;;;3.30;99.90;;;;;;5055494;28;20034;-66
2021/12/05 08:21:53;;;;;;;35.55;17.90;;;3.30;99.90;;;;;;5056566;28;20030;-67
2021/12/05 08:24:19;;;;;;;20.73;10.73;;;3.30;99.90;;;;;;5056945;28;20018;-66
2021/12/05 08:26:48;;;;;;;29.58;16.50;;;3.30;99.90;;;;;;5054650;28;20041;-66
2021/12/05 08:29:18;;;;;;;25.05;13.00;;;3.40;99.90;;;;;;5010016;28;20114;-66
2021/12/05 10:38:51;;;;;;;4.68;2.65;;;4.60;99.90;;;;;;4971629;28;20038;-70
2021/12/05 10:43:58;;;;;;;6.80;2.90;;;4.70;99.90;;;;;;5011493;28;20437;-69
2021/12/05 10:46:26;;;;;;;11.18;6.57;;;4.70;99.90;;;;;;5092440;27;20037;-69
2021/12/05 10:49:02;;;;;;;7.55;3.22;;;4.80;99.90;;;;;;5069831;28;20030;-69
2021/12/05 10:51:37;;;;;;;6.78;2.72;;;4.80;99.90;;;;;;5072132;28;20037;-69
2021/12/05 10:54:07;;;;;;;3.72;1.13;;;4.90;99.90;;;;;;5083935;28;20539;-71
2021/12/05 10:56:44;;;;;;;4.55;1.35;;;4.90;99.90;;;;;;5062887;28;20379;-70
2021/12/05 10:59:17;;;;;;;1.67;0.95;;;4.90;99.90;;;;;;5070737;28;20030;-69
2021/12/05 11:01:50;;;;;;;2.78;1.40;;;4.90;99.90;;;;;;5076338;28;20037;-70
2021/12/05 11:04:32;;;;;;;4.82;1.20;;;5.00;99.90;;;;;;5065111;28;20057;-69
2021/12/05 11:07:11;;;;;;;3.47;1.67;;;5.00;99.90;;;;;;5074787;28;20124;-69
2021/12/05 11:09:57;;;;;;;5.53;1.27;;;5.10;99.90;;;;;;5074293;28;20030;-69
2021/12/05 11:12:27;;;;;;;2.15;1.20;;;5.10;99.90;;;;;;5067899;28;20609;-70
2021/12/05 11:15:01;;;;;;;4.85;1.80;;;5.20;99.90;;;;;;5078684;28;20030;-69
2021/12/05 11:17:37;;;;;;;2.38;1.60;;;5.20;99.90;;;;;;5077966;28;20029;-68
2021/12/05 11:20:11;;;;;;;5.85;1.90;;;5.30;99.90;;;;;;5072878;28;20498;-69
2021/12/05 11:22:40;;;;;;;4.10;1.40;;;5.30;99.90;;;;;;5078231;28;20421;-73
2021/12/05 11:25:15;;;;;;;3.58;1.30;;;5.40;99.90;;;;;;5077969;28;20033;-72
2021/12/05 11:27:44;;;;;;;3.55;1.60;;;5.50;99.90;;;;;;5077610;28;20481;-70
2021/12/05 11:30:33;;;;;;;3.55;1.98;;;5.50;99.90;;;;;;5077894;28;20030;-72
2021/12/05 11:33:06;;;;;;;3.10;1.10;;;5.50;99.90;;;;;;5078518;28;20124;-70
2021/12/05 11:35:34;;;;;;;2.53;1.00;;;5.60;99.90;;;;;;5078614;28;20030;-70
2021/12/05 11:38:21;;;;;;;3.78;1.10;;;5.50;99.90;;;;;;5077754;28;20030;-72
2021/12/05 11:40:46;;;;;;;1.45;1.13;;;5.50;99.90;;;;;;5077959;28;20030;-70
2021/12/05 11:43:19;;;;;;;1.48;1.00;;;5.60;99.90;;;;;;5078352;28;20061;-70
2021/12/05 11:46:06;;;;;;;5.07;2.10;;;5.60;99.90;;;;;;5078441;28;20026;-70
2021/12/05 11:48:38;;;;;;;1.23;0.90;;;5.60;99.90;;;;;;5074800;28;20176;-70
2021/12/05 11:51:29;;;;;;;4.00;1.25;;;5.60;99.90;;;;;;5065854;28;20014;-69
2021/12/05 11:54:10;;;;;;;1.35;1.10;;;5.70;99.90;;;;;;5078302;28;20477;-71
2021/12/05 11:57:05;;;;;;;4.35;1.00;;;5.70;99.90;;;;;;5077265;28;20523;-70
2021/12/05 11:59:53;;;;;;;3.63;1.00;;;5.70;99.90;;;;;;5066340;28;20029;-72
2021/12/05 12:02:21;;;;;;;2.97;0.98;;;5.70;99.90;;;;;;5075440;28;20022;-70
2021/12/05 12:04:52;;;;;;;3.42;0.98;;;5.80;99.90;;;;;;5078105;28;20088;-70
2021/12/05 12:07:18;;;;;;;3.13;1.00;;;5.90;99.90;;;;;;5076589;28;20025;-70
2021/12/05 12:09:46;;;;;;;2.00;0.93;;;6.00;99.90;;;;;;5077738;28;20468;-69
2021/12/05 12:12:11;;;;;;;6.22;2.65;;;6.10;99.90;;;;;;5065299;28;20375;-70
2021/12/05 12:14:38;;;;;;;1.70;1.50;;;6.30;99.90;;;;;;5057955;28;20088;-71
2021/12/05 12:17:09;;;;;;;1.92;1.20;;;6.50;99.90;;;;;;5057081;28;20034;-69
2021/12/05 12:19:36;;;;;;;3.40;1.85;;;6.50;99.90;;;;;;5057343;28;20065;-70
2021/12/05 12:22:03;;;;;;;1.45;0.95;;;6.70;99.90;;;;;;5057996;28;20079;-70
2021/12/05 12:24:31;;;;;;;4.32;1.58;;;6.80;99.90;;;;;;5058074;28;20022;-70
2021/12/05 12:26:56;;;;;;;1.08;0.98;;;6.70;99.90;;;;;;5057585;28;20402;-70
2021/12/05 12:29:24;;;;;;;6.70;4.88;;;6.70;99.90;;;;;;5056760;28;20034;-70
2021/12/05 12:31:51;;;;;;;2.35;1.33;;;6.60;99.90;;;;;;5068899;28;20120;-71
2021/12/05 12:34:21;;;;;;;1.33;1.10;;;6.40;99.90;;;;;;5077608;28;20112;-70
2021/12/05 12:36:53;;;;;;;4.30;2.78;;;6.30;99.90;;;;;;5077465;28;20736;-70
2021/12/05 12:39:20;;;;;;;1.45;0.90;;;6.10;99.90;;;;;;5077058;28;20108;-70
2021/12/05 12:42:01;;;;;;;1.65;1.30;;;6.00;99.90;;;;;;5077263;28;20030;-71
2021/12/05 12:44:27;;;;;;;3.40;1.60;;;5.90;99.90;;;;;;5074444;28;20026;-70
2021/12/05 12:47:00;;;;;;;2.92;1.10;;;5.90;99.90;;;;;;5077470;28;20029;-76
2021/12/05 12:49:39;;;;;;;;;;;5.80;99.90;;;;;;5077631;28;20498;-72
2021/12/05 12:52:04;;;;;;;1.38;1.27;;;5.70;99.90;;;;;;5077119;28;19916;-70
2021/12/05 12:54:40;;;;;;;4.75;2.80;;;5.70;99.90;;;;;;5077477;28;20034;-70
2021/12/05 12:57:06;;;;;;;1.25;1.17;;;5.70;99.90;;;;;;5076854;28;20030;-70
2021/12/05 12:59:35;;;;;;;2.22;1.40;;;5.70;99.90;;;;;;5077601;28;20080;-70
2021/12/05 13:12:44;;;;;;;6.53;3.38;;;5.80;99.90;;;;;;5009476;28;20400;-71
2021/12/05 13:15:19;;;;;;;2.22;1.83;;;5.80;99.90;;;;;;5057061;28;20038;-70
2021/12/05 13:17:48;;;;;;;2.78;1.73;;;5.80;99.90;;;;;;5057951;28;20026;-71
2021/12/05 13:20:19;;;;;;;1.65;1.20;;;5.80;99.90;;;;;;5060628;28;20022;-69
2021/12/05 13:23:14;;;;;;;2.55;1.70;;;5.80;99.90;;;;;;5060777;28;20019;-70
2021/12/05 13:26:03;;;;;;;1.50;1.40;;;5.80;99.90;;;;;;5060881;28;20037;-69
2021/12/05 13:28:32;;;;;;;1.50;1.13;;;5.80;99.90;;;;;;5049225;28;20034;-70
2021/12/05 13:30:59;;;;;;;3.35;1.20;;;5.80;99.90;;;;;;5060511;28;20577;-70
2021/12/05 13:33:30;;;;;;;4.00;1.10;;;5.70;99.90;;;;;;5060796;28;20031;-71
2021/12/05 13:35:58;;;;;;;1.05;0.60;;;5.70;99.90;;;;;;5060420;28;20026;-70
2021/12/05 13:38:40;;;;;;;1.67;1.10;;;5.70;99.90;;;;;;5059979;28;20075;-70
2021/12/05 13:41:15;;;;;;;1.45;0.80;;;5.60;99.90;;;;;;5060015;28;20428;-72
2021/12/05 13:43:53;;;;;;;2.50;0.80;;;5.60;99.90;;;;;;5060314;28;20065;-71
2021/12/05 13:46:34;;;;;;;3.00;1.00;;;5.60;99.90;;;;;;5072183;28;20122;-73
2021/12/05 13:49:02;;;;;;;5.68;3.55;;;5.60;99.90;;;;;;5060816;28;20030;-70
2021/12/05 13:51:28;;;;;;;2.25;0.95;;;5.60;99.90;;;;;;5011808;28;20029;-71
2021/12/05 13:53:59;;;;;;;2.90;1.30;;;5.50;99.90;;;;;;5080538;28;20026;-71
2021/12/05 13:56:28;;;;;;;3.60;1.50;;;5.50;99.90;;;;;;5080166;28;20082;-69
2021/12/05 13:58:59;;;;;;;1.23;1.13;;;5.50;99.90;;;;;;5079884;28;20026;-70
2021/12/05 14:01:35;;;;;;;4.13;1.45;;;5.40;99.90;;;;;;5080222;28;20482;-70
2021/12/05 14:04:16;;;;;;;4.55;1.98;;;5.40;99.90;;;;;;5080122;28;20111;-70
2021/12/05 14:07:06;;;;;;;4.15;2.67;;;5.40;99.90;;;;;;5079991;28;20026;-71
2021/12/05 14:09:44;;;;;;;2.63;1.60;;;5.40;99.90;;;;;;5079787;28;20548;-70
2021/12/05 14:12:27;;;;;;;4.93;2.78;;;5.30;99.90;;;;;;5079939;28;20038;-70
2021/12/05 14:15:06;;;;;;;3.42;1.50;;;5.30;99.90;;;;;;5061312;28;20053;-70
2021/12/05 14:17:34;;;;;;;1.48;0.80;;;5.30;99.90;;;;;;5059505;28;20034;-70
2021/12/05 14:20:12;;;;;;;1.48;1.10;;;5.20;99.90;;;;;;5059918;28;20073;-71
2021/12/05 14:22:39;;;;;;;1.67;0.90;;;5.10;99.90;;;;;;5060016;28;20475;-70
2021/12/05 14:25:14;;;;;;;1.55;0.73;;;5.00;99.90;;;;;;5059943;28;20034;-70
2021/12/05 14:27:47;;;;;;;0.75;0.73;;;4.90;99.90;;;;;;5077793;28;20034;-70
2021/12/05 14:30:16;;;;;;;1.02;0.88;;;4.80;99.90;;;;;;5078800;28;20030;-70
2021/12/05 14:32:45;;;;;;;1.27;0.60;;;4.80;99.90;;;;;;5079582;28;20132;-70
2021/12/05 14:35:17;;;;;;;1.80;0.90;;;4.70;99.90;;;;;;5079662;28;20098;-70
2021/12/05 14:37:46;;;;;;;2.35;1.10;;;4.60;99.90;;;;;;5075849;28;20034;-71
2021/12/05 14:40:16;;;;;;;0.90;0.90;;;4.60;99.90;;;;;;5076132;28;20398;-70
2021/12/05 14:42:45;;;;;;;0.60;0.60;;;4.60;99.90;;;;;;5071131;28;20125;-70
2021/12/05 14:45:22;;;;;;;1.80;0.80;;;4.50;99.90;;;;;;5068000;28;20026;-70
2021/12/05 14:47:51;;;;;;;1.67;0.68;;;4.40;99.90;;;;;;5058863;28;20387;-70
2021/12/05 14:50:26;;;;;;;1.60;0.63;;;4.40;99.90;;;;;;5058906;28;20079;-70
2021/12/05 14:52:55;;;;;;;0.88;0.88;;;4.30;99.90;;;;;;5059638;28;20419;-70
2021/12/05 14:55:24;;;;;;;1.27;1.13;;;4.20;99.90;;;;;;5059145;28;20034;-69
2021/12/05 14:58:12;;;;;;;0.60;0.60;;;4.10;99.90;;;;;;5058046;28;20521;-70
2021/12/05 15:00:39;;;;;;;2.00;0.80;;;4.00;99.90;;;;;;5058395;28;20045;-70
2021/12/05 15:03:08;;;;;;;1.35;1.25;;;4.00;99.90;;;;;;5078768;28;20026;-71
2021/12/05 15:05:36;;;;;;;2.15;1.88;;;4.00;99.90;;;;;;5079155;28;20474;-70
2021/12/05 15:08:10;;;;;;;1.20;1.10;;;3.90;99.90;;;;;;5078328;28;20063;-70
2021/12/05 15:10:36;;;;;;;1.30;1.20;;;3.90;99.90;;;;;;5078734;28;20029;-70
2021/12/05 15:13:02;;;;;;;1.63;1.20;;;3.80;99.90;;;;;;5078930;28;20428;-70
2021/12/05 15:15:29;;;;;;;1.98;1.50;;;3.80;99.90;;;;;;5078831;28;20026;-70
2021/12/05 15:17:56;;;;;;;1.45;1.00;;;3.80;99.90;;;;;;5078385;28;20034;-70
2021/12/05 15:20:25;;;;;;;0.80;0.80;;;3.70;99.90;;;;;;5078496;28;20026;-71
2021/12/05 15:23:02;;;;;;;5.25;2.03;;;3.60;99.90;;;;;;5078759;28;20036;-70
2021/12/05 15:25:28;;;;;;;1.42;1.00;;;3.60;99.90;;;;;;5078927;28;20390;-70
2021/12/05 15:27:55;;;;;;;11.88;5.35;;;3.50;99.90;;;;;;5078071;28;20030;-70
2021/12/05 15:30:26;;;;;;;6.25;3.88;;;3.50;99.90;;;;;;5078318;28;20065;-70
2021/12/05 15:32:54;;;;;;;6.72;2.78;;;3.40;99.90;;;;;;5078564;28;20069;-70
2021/12/05 15:35:22;;;;;;;5.70;3.20;;;3.40;99.90;;;;;;5078567;28;20025;-72
2021/12/05 15:37:57;;;;;;;4.32;2.30;;;3.40;99.90;;;;;;5078214;28;20037;-69
2021/12/05 15:40:26;;;;;;;4.07;2.00;;;3.30;99.90;;;;;;5078581;28;20022;-70
2021/12/05 15:42:57;;;;;;;3.60;2.45;;;3.40;99.90;;;;;;5060008;28;20030;-69
2021/12/05 15:45:22;;;;;;;1.90;1.10;;;3.30;99.90;;;;;;5066522;28;20027;-71
2021/12/05 15:47:49;;;;;;;3.20;1.17;;;3.30;99.90;;;;;;5074278;28;20065;-73
2021/12/05 15:50:26;;;;;;;1.60;1.33;;;3.30;99.90;;;;;;5017981;28;20407;-70
2021/12/05 15:52:54;;;;;;;2.63;1.88;;;3.30;99.90;;;;;;5065230;28;20037;-70
2021/12/05 15:55:27;;;;;;;4.13;3.63;;;3.30;99.90;;;;;;5078468;28;20029;-70
2021/12/05 15:58:09;;;;;;;5.88;3.40;;;3.30;99.90;;;;;;5077566;28;20029;-72
2021/12/05 16:01:01;;;;;;;2.35;1.17;;;3.40;99.90;;;;;;5078238;28;20022;-71
2021/12/05 16:03:39;;;;;;;1.52;0.68;;;3.30;99.90;;;;;;5078123;28;20079;-72
2021/12/05 16:06:05;;;;;;;0.60;0.60;;;3.30;99.90;;;;;;5077938;28;20025;-70
2021/12/05 16:08:32;;;;;;;0.52;0.50;;;3.30;99.90;;;;;;5077579;28;20126;-69
2021/12/05 16:10:59;;;;;;;0.80;0.80;;;3.30;99.90;;;;;;5078101;28;20022;-70
2021/12/05 16:13:38;;;;;;;1.58;0.90;;;3.30;99.90;;;;;;5071732;28;20046;-70
2021/12/05 16:16:30;;;;;;;1.17;1.02;;;3.40;99.90;;;;;;5057867;28;20027;-71
2021/12/05 16:18:59;;;;;;;1.35;0.95;;;3.40;99.90;;;;;;5075601;28;20041;-70
2021/12/05 16:21:33;;;;;;;1.60;1.50;;;3.40;99.90;;;;;;5077745;28;20033;-70
2021/12/05 16:24:12;;;;;;;2.38;1.80;;;3.30;99.90;;;;;;5077973;28;20026;-73
2021/12/05 16:26:38;;;;;;;9.65;6.93;;;3.30;99.90;;;;;;5077453;28;20113;-70
2021/12/05 16:29:11;;;;;;;5.57;3.97;;;3.30;99.90;;;;;;5077025;28;20030;-71
2021/12/05 16:31:41;;;;;;;2.22;2.03;;;3.30;99.90;;;;;;5077855;28;20022;-70
2021/12/05 16:34:20;;;;;;;3.50;3.20;;;3.30;99.90;;;;;;5077748;28;20120;-70
2021/12/05 16:36:52;;;;;;;6.57;4.53;;;3.20;99.90;;;;;;5077245;28;20560;-70
2021/12/05 16:39:21;;;;;;;7.68;6.05;;;3.20;99.90;;;;;;5069927;28;20025;-71
2021/12/05 16:41:53;;;;;;;11.95;8.52;;;3.10;99.90;;;;;;5067964;28;20038;-70
2021/12/05 16:44:25;;;;;;;10.98;7.50;;;3.10;99.90;;;;;;5065805;28;20076;-70
2021/12/05 16:47:08;;;;;;;7.60;5.20;;;3.00;99.90;;;;;;5063325;28;20066;-70
2021/12/05 16:49:35;;;;;;;;;;;3.00;99.90;;;;;;5077803;28;20065;-70
2021/12/05 16:52:04;;;;;;;2.85;2.55;;;2.90;99.90;;;;;;5076395;28;20001;-73
2021/12/05 16:54:33;;;;;;;2.38;1.95;;;2.90;99.90;;;;;;5051913;28;20678;-70
2021/12/05 16:57:13;;;;;;;10.15;7.00;;;2.90;99.90;;;;;;5061196;28;20030;-70
2021/12/05 16:59:48;;;;;;;4.32;3.50;;;2.80;99.90;;;;;;5030683;28;20051;-71
2021/12/05 17:02:40;;;;;;;5.78;2.03;;;2.80;99.90;;;;;;5068047;28;20077;-71
2021/12/05 17:05:07;;;;;;;1.27;1.17;;;2.80;99.90;;;;;;5068485;28;20061;-70
2021/12/05 17:07:42;;;;;;;5.07;2.38;;;2.80;99.90;;;;;;5068195;28;20401;-70
2021/12/05 17:10:20;;;;;;;3.45;2.72;;;2.80;99.90;;;;;;5061688;28;20033;-69
2021/12/05 17:12:47;;;;;;;1.83;1.70;;;2.70;99.90;;;;;;5059451;28;20030;-69
2021/12/05 17:15:19;;;;;;;1.30;1.20;;;2.70;99.90;;;;;;5073546;28;20026;-69
2021/12/05 17:17:47;;;;;;;1.70;1.60;;;2.70;99.90;;;;;;5069727;28;20034;-70
2021/12/05 17:20:28;;;;;;;1.42;1.30;;;2.70;99.90;;;;;;4993115;28;20112;-70
2021/12/05 17:23:06;;;;;;;2.75;1.30;;;2.70;99.90;;;;;;5072737;28;20028;-71
2021/12/05 17:25:38;;;;;;;1.65;1.55;;;2.70;99.90;;;;;;5071510;28;20509;-69
2021/12/05 17:28:11;;;;;;;1.58;1.48;;;2.60;99.90;;;;;;5074052;28;20096;-69
2021/12/05 17:30:48;;;;;;;1.35;1.25;;;2.60;99.90;;;;;;5074589;28;20600;-70
2021/12/05 17:33:33;;;;;;;2.47;1.90;;;2.50;99.90;;;;;;5074939;28;20378;-70
2021/12/05 17:36:31;;;;;;;1.30;1.20;;;2.50;99.90;;;;;;5072123;28;20027;-70
2021/12/05 17:39:08;;;;;;;1.70;1.60;;;2.60;99.90;;;;;;5045164;28;20050;-70
2021/12/05 17:41:34;;;;;;;1.00;1.00;;;2.50;99.90;;;;;;5061927;28;20498;-70
2021/12/05 17:44:03;;;;;;;1.25;1.15;;;2.50;99.90;;;;;;5063370;28;20088;-71
2021/12/05 17:46:30;;;;;;;1.45;1.15;;;2.60;99.90;;;;;;5072016;28;20033;-70
2021/12/05 17:48:58;;;;;;;2.20;2.00;;;2.50;99.90;;;;;;5072017;28;20022;-70
2021/12/05 17:51:32;;;;;;;5.53;3.40;;;2.50;99.90;;;;;;5074434;28;20034;-75
2021/12/05 17:53:58;;;;;;;8.95;6.35;;;2.50;99.90;;;;;;5074403;28;20091;-69
2021/12/05 17:56:43;;;;;;;3.00;2.20;;;2.50;99.90;;;;;;5074395;28;20033;-72
2021/12/05 18:04:43;;;;;;;1.60;0.90;;;2.40;99.90;;;;;;5003116;28;20033;-71
2021/12/05 18:07:11;;;;;;;2.42;1.70;;;2.40;99.90;;;;;;5008932;28;20022;-70
2021/12/05 18:09:37;;;;;;;2.55;2.35;;;2.40;99.90;;;;;;5077726;28;20453;-72
2021/12/05 18:12:07;;;;;;;2.28;1.90;;;2.50;99.90;;;;;;5066638;28;20435;-70
2021/12/05 18:14:35;;;;;;;1.70;1.60;;;2.50;99.90;;;;;;5062095;28;20152;-69
2021/12/05 18:17:01;;;;;;;2.95;1.85;;;2.50;99.90;;;;;;5076179;28;20038;-69
2021/12/05 18:19:27;;;;;;;3.03;1.83;;;2.40;99.90;;;;;;5077143;28;20458;-69
2021/12/05 18:21:52;;;;;;;3.38;2.92;;;2.40;99.90;;;;;;5076957;28;20033;-69
2021/12/05 18:24:19;;;;;;;6.22;3.80;;;2.30;99.90;;;;;;5076948;28;20496;-69
2021/12/05 18:26:47;;;;;;;5.25;3.92;;;2.30;99.90;;;;;;5076957;28;20046;-68
2021/12/05 18:29:15;;;;;;;5.80;4.38;;;2.20;99.90;;;;;;5076392;28;20069;-71
2021/12/05 18:31:41;;;;;;;5.13;4.40;;;2.20;99.90;;;;;;5077434;28;20022;-69
2021/12/05 18:34:14;;;;;;;5.65;4.75;;;2.20;99.90;;;;;;5075749;28;20033;-70
2021/12/05 18:36:42;;;;;;;6.93;5.05;;;2.20;99.90;;;;;;5075088;28;20049;-70
2021/12/05 18:39:14;;;;;;;8.48;5.93;;;2.20;99.90;;;;;;5074356;28;20072;-70
2021/12/05 18:41:40;;;;;;;7.00;5.70;;;2.20;99.90;;;;;;5074470;28;20030;-69
2021/12/05 18:44:13;;;;;;;7.75;5.43;;;2.20;99.90;;;;;;5066696;28;20538;-70
2021/12/05 18:46:41;;;;;;;7.88;5.20;;;2.30;99.90;;;;;;5017074;28;21706;-70
2021/12/05 18:49:07;;;;;;;7.70;5.25;;;2.30;99.90;;;;;;5081152;28;20199;-69
2021/12/05 18:51:33;;;;;;;5.57;5.00;;;2.30;99.90;;;;;;5000990;28;20108;-69
2021/12/05 18:53:59;;;;;;;6.00;5.05;;;2.30;99.90;;;;;;5048335;28;20041;-69
2021/12/05 18:56:27;;;;;;;7.20;5.10;;;2.30;99.90;;;;;;5069692;28;20030;-69
2021/12/05 18:58:54;;;;;;;8.18;5.85;;;2.40;99.90;;;;;;5069248;28;20079;-70
2021/12/05 19:06:51;;;;;;;20.17;10.80;;;2.50;99.90;;;;;;5007167;28;20037;-70
2021/12/05 19:11:39;;;;;;;14.75;8.98;;;2.50;99.90;;;;;;5067351;28;20044;-69
2021/12/05 19:12:25;;;;;;;9.27;6.72;;;2.50;99.90;;;;;;5000472;28;20468;-70
2021/12/05 19:14:55;;;;;;;10.13;6.72;;;2.50;99.90;;;;;;5062468;28;20026;-70